Terminal Aerodrome Forecast
Issued by NWS

Home | Current Version | Previous Version | Text Only | Print | Product List | Glossary On
Versions: 1 2 3 4 5 6 7 8 9 10 11 12 13 14 15 16 17 18 19 20 21 22 23 24
000
FTUS44 KOUN 260521
TAFWWR
TAF
KWWR 260521Z 2606/2706 08013G20KT P6SM OVC100
     FM260800 10012G19KT P6SM OVC015
     FM261200 07012KT 4SM BR OVC008
     FM262100 08012KT P6SM OVC035
     FM270000 10016KT P6SM OVC015
      TEMPO 2700/2703 3SM -TSRA BKN015CB
     FM270300 07011KT P6SM OVC007
      TEMPO 2703/2706 1SM -RA BR BKN007=

USA.gov is the U.S. government's official web portal to all federal, state and local government web resources and services.